Time;durP1;ratioP1;P1;durP2;ratioP2;P2;SDS_P1;SDS_P2;PMS_P1;PMS_P2;Temp;Humidity;BMP_temperature;BMP_pressure;BME280_temperature;BME280_humidity;BME280_pressure;Samples;Min_cycle;Max_cycle;Signal;HPM_P1;HPM_P2
2023/09/09 00:00:09;;;;;;;12.27;7.90;;;19.20;70.30;;;;;;5108281;28;20509;-80
2023/09/09 00:02:41;;;;;;;10.20;6.87;;;19.10;70.30;;;;;;5106668;28;20848;-80
2023/09/09 00:05:09;;;;;;;11.50;7.20;;;19.10;70.40;;;;;;5107561;27;22004;-78
2023/09/09 00:07:37;;;;;;;13.50;7.63;;;19.10;70.30;;;;;;5108425;28;20470;-80
2023/09/09 00:10:06;;;;;;;9.90;6.30;;;19.10;70.30;;;;;;5109429;27;20976;-79
2023/09/09 00:12:34;;;;;;;11.27;7.70;;;19.00;70.30;;;;;;5109281;28;20468;-80
2023/09/09 00:15:08;;;;;;;9.37;6.50;;;19.00;70.40;;;;;;5090381;28;21330;-78
2023/09/09 00:17:36;;;;;;;10.90;7.57;;;19.00;70.40;;;;;;5087254;28;22096;-80
2023/09/09 00:20:07;;;;;;;11.00;7.40;;;19.00;70.40;;;;;;5107738;28;20475;-79
2023/09/09 00:22:35;;;;;;;11.40;7.33;;;19.00;70.40;;;;;;5104581;28;20475;-80
2023/09/09 00:25:03;;;;;;;9.50;6.70;;;19.00;70.40;;;;;;5109085;28;20805;-79
2023/09/09 00:27:31;;;;;;;9.97;7.57;;;19.00;70.30;;;;;;5091517;28;20474;-80
2023/09/09 00:29:59;;;;;;;12.80;7.67;;;18.90;70.30;;;;;;5091966;28;20436;-79
2023/09/09 00:32:29;;;;;;;13.30;7.67;;;18.90;70.30;;;;;;5086850;28;20482;-78
2023/09/09 00:34:57;;;;;;;9.70;7.37;;;18.90;70.30;;;;;;5108993;27;20459;-78
2023/09/09 00:37:25;;;;;;;9.80;6.43;;;18.90;70.20;;;;;;5108049;27;20467;-79
2023/09/09 00:39:53;;;;;;;11.33;7.97;;;18.80;70.20;;;;;;5090841;28;20459;-80
2023/09/09 00:42:22;;;;;;;11.73;7.20;;;18.70;70.30;;;;;;5104615;28;20846;-80
2023/09/09 00:44:50;;;;;;;13.00;8.57;;;18.70;70.50;;;;;;5089158;27;20919;-77
2023/09/09 00:47:19;;;;;;;10.10;7.43;;;18.70;70.50;;;;;;5087615;28;20549;-79
2023/09/09 00:49:48;;;;;;;11.00;7.70;;;18.60;70.40;;;;;;5087686;28;20973;-79
2023/09/09 00:52:16;;;;;;;14.47;7.40;;;18.60;70.40;;;;;;5102018;27;20509;-78
2023/09/09 00:54:44;;;;;;;9.87;7.23;;;18.50;70.40;;;;;;5111387;27;20484;-79
2023/09/09 00:57:13;;;;;;;16.53;8.20;;;18.40;70.50;;;;;;5107570;28;20468;-78
2023/09/09 00:59:41;;;;;;;14.60;7.93;;;18.40;70.40;;;;;;5106186;27;20456;-77
2023/09/09 01:02:09;;;;;;;12.53;7.97;;;18.30;70.40;;;;;;5103278;28;20487;-78
2023/09/09 01:04:41;;;;;;;9.00;5.90;;;18.20;70.60;;;;;;5110638;28;21027;-79
2023/09/09 01:07:11;;;;;;;12.00;6.63;;;18.10;70.70;;;;;;5112346;28;20895;-80
2023/09/09 01:09:40;;;;;;;14.70;7.03;;;18.00;70.90;;;;;;5089626;28;20906;-79
2023/09/09 01:12:11;;;;;;;11.43;7.80;;;18.00;70.90;;;;;;5087766;28;20449;-78
2023/09/09 01:14:41;;;;;;;12.43;8.23;;;18.00;71.00;;;;;;5089524;28;20477;-79
2023/09/09 01:17:10;;;;;;;10.80;8.57;;;17.90;71.10;;;;;;5107728;28;20467;-79
2023/09/09 01:19:38;;;;;;;11.37;8.07;;;17.90;71.20;;;;;;5102917;27;20468;-77
2023/09/09 01:22:11;;;;;;;17.70;7.80;;;17.90;71.40;;;;;;5087164;28;20448;-78
2023/09/09 01:24:45;;;;;;;14.47;7.60;;;17.90;71.50;;;;;;5107327;28;20835;-77
2023/09/09 01:27:14;;;;;;;12.80;7.50;;;17.90;71.60;;;;;;5090091;28;20540;-79
2023/09/09 01:29:43;;;;;;;11.67;6.77;;;18.00;71.60;;;;;;5090566;28;20535;-79
2023/09/09 01:32:11;;;;;;;10.83;7.63;;;18.00;71.60;;;;;;5075254;28;21097;-80
2023/09/09 01:34:39;;;;;;;9.70;6.90;;;18.00;71.50;;;;;;5087700;28;20471;-80
2023/09/09 01:37:07;;;;;;;13.90;7.90;;;18.00;71.50;;;;;;5087719;28;20453;-79
2023/09/09 01:39:35;;;;;;;12.60;8.33;;;18.00;71.40;;;;;;5085466;28;20462;-77
2023/09/09 01:42:05;;;;;;;11.83;8.00;;;17.90;71.30;;;;;;5084277;28;20897;-80
2023/09/09 01:44:33;;;;;;;11.50;7.50;;;17.90;71.40;;;;;;5070261;28;20576;-79
2023/09/09 01:47:05;;;;;;;11.87;8.03;;;17.90;71.40;;;;;;5067987;28;20989;-79
2023/09/09 01:49:33;;;;;;;12.83;7.03;;;17.90;71.40;;;;;;5083274;28;20976;-78
2023/09/09 01:52:02;;;;;;;12.40;6.83;;;17.80;71.50;;;;;;5069885;28;20464;-80
2023/09/09 01:54:30;;;;;;;12.43;7.90;;;17.90;71.60;;;;;;5074139;28;20464;-77
2023/09/09 01:56:58;;;;;;;10.40;7.20;;;17.90;71.60;;;;;;5069338;28;20793;-78
2023/09/09 01:59:27;;;;;;;11.07;7.50;;;17.90;71.60;;;;;;5089454;28;20543;-79
2023/09/09 02:01:56;;;;;;;11.40;7.47;;;17.90;71.50;;;;;;5064116;28;20531;-76
2023/09/09 02:04:24;;;;;;;14.10;7.50;;;17.90;71.50;;;;;;5080249;28;20458;-78
2023/09/09 02:06:52;;;;;;;13.97;8.23;;;17.90;71.40;;;;;;5095786;28;20842;-77
2023/09/09 02:09:20;;;;;;;13.37;8.10;;;17.90;71.40;;;;;;5088195;28;20543;-77
2023/09/09 02:11:49;;;;;;;13.00;7.97;;;17.90;71.40;;;;;;5103760;28;20460;-77
2023/09/09 02:14:17;;;;;;;12.77;7.63;;;17.80;71.30;;;;;;5089097;28;20513;-79
2023/09/09 02:16:47;;;;;;;12.13;7.27;;;17.80;71.20;;;;;;5083327;28;20491;-77
2023/09/09 02:19:15;;;;;;;12.53;7.10;;;17.80;71.20;;;;;;5066726;28;20467;-78
2023/09/09 02:21:43;;;;;;;10.70;7.10;;;17.80;71.20;;;;;;5089407;28;20823;-77
2023/09/09 02:24:11;;;;;;;11.90;7.60;;;17.80;71.20;;;;;;5083963;28;20457;-80
2023/09/09 02:26:39;;;;;;;10.87;7.80;;;17.80;71.20;;;;;;5083137;28;20574;-81
2023/09/09 02:29:07;;;;;;;12.63;7.73;;;17.80;71.20;;;;;;5101040;28;20456;-78
2023/09/09 02:31:36;;;;;;;13.90;8.10;;;17.80;71.20;;;;;;5095410;27;20481;-78
2023/09/09 02:34:05;;;;;;;11.87;7.87;;;17.80;71.10;;;;;;5096316;28;20460;-78
2023/09/09 02:36:34;;;;;;;11.33;7.20;;;17.70;71.10;;;;;;5094379;28;20451;-80
2023/09/09 02:39:02;;;;;;;12.30;8.27;;;17.70;71.10;;;;;;5100095;27;20450;-79
2023/09/09 02:41:30;;;;;;;13.70;8.07;;;17.60;71.10;;;;;;5109310;27;20452;-78
2023/09/09 02:43:58;;;;;;;12.17;8.70;;;17.50;71.20;;;;;;5112817;27;20451;-78
2023/09/09 02:46:26;;;;;;;12.80;8.63;;;17.50;71.20;;;;;;5090331;27;21210;-78
2023/09/09 02:48:54;;;;;;;13.93;8.23;;;17.40;71.20;;;;;;5094445;28;20463;-80
2023/09/09 02:51:25;;;;;;;13.10;8.10;;;17.30;71.30;;;;;;5094673;27;20444;-81
2023/09/09 02:53:53;;;;;;;13.43;8.30;;;17.30;71.40;;;;;;5093775;27;20522;-76
2023/09/09 02:56:21;;;;;;;11.37;8.13;;;17.30;71.40;;;;;;5111910;27;20459;-79
2023/09/09 02:58:49;;;;;;;16.33;7.80;;;17.20;71.40;;;;;;5094484;27;20466;-77
2023/09/09 03:01:17;;;;;;;15.10;8.63;;;17.10;71.40;;;;;;5093925;28;20463;-81
2023/09/09 03:03:46;;;;;;;11.37;7.90;;;17.10;71.50;;;;;;5110720;27;20578;-82
2023/09/09 03:06:15;;;;;;;12.77;7.47;;;17.00;71.60;;;;;;5092818;28;20456;-79
2023/09/09 03:08:44;;;;;;;11.87;8.13;;;17.00;71.60;;;;;;5091546;28;20455;-80
2023/09/09 03:11:12;;;;;;;13.40;7.37;;;17.00;71.70;;;;;;5113632;27;20538;-81
2023/09/09 03:13:43;;;;;;;11.33;7.40;;;16.90;71.80;;;;;;5090726;28;20491;-78
2023/09/09 03:16:11;;;;;;;11.87;7.90;;;16.90;71.90;;;;;;5090706;28;20515;-80
2023/09/09 03:18:39;;;;;;;11.17;7.07;;;16.90;72.00;;;;;;5092434;28;20464;-79
2023/09/09 03:21:07;;;;;;;17.63;7.77;;;17.00;72.00;;;;;;5110970;28;20444;-77
2023/09/09 03:23:35;;;;;;;11.77;7.60;;;17.10;72.10;;;;;;5110623;27;20436;-78
2023/09/09 03:26:06;;;;;;;15.70;6.37;;;17.10;72.10;;;;;;5113481;27;20504;-81
2023/09/09 03:28:34;;;;;;;11.77;7.13;;;17.20;71.90;;;;;;5110930;27;20458;-77
2023/09/09 03:31:02;;;;;;;12.30;7.20;;;17.20;71.60;;;;;;5109451;28;20475;-79
2023/09/09 03:33:30;;;;;;;13.77;8.33;;;17.10;71.50;;;;;;5091622;28;20546;-78
2023/09/09 03:35:59;;;;;;;14.30;7.73;;;17.10;71.60;;;;;;5093768;28;20476;-80
2023/09/09 03:38:27;;;;;;;11.80;7.50;;;17.10;71.50;;;;;;5111178;27;20455;-79
2023/09/09 03:40:56;;;;;;;12.70;7.70;;;17.10;71.50;;;;;;5110988;27;20539;-78
2023/09/09 03:43:25;;;;;;;12.67;8.00;;;17.00;71.40;;;;;;5112039;27;20452;-79
2023/09/09 03:45:57;;;;;;;11.20;7.73;;;17.00;71.50;;;;;;5100306;28;20497;-79
2023/09/09 03:48:25;;;;;;;10.47;7.23;;;17.00;71.60;;;;;;5109873;28;20455;-79
2023/09/09 03:50:58;;;;;;;11.00;7.13;;;17.00;71.60;;;;;;5114459;27;20455;-81
2023/09/09 03:53:26;;;;;;;10.73;7.10;;;17.00;71.50;;;;;;5090268;28;20468;-80
2023/09/09 03:55:55;;;;;;;10.63;6.87;;;17.00;71.40;;;;;;5091574;28;20464;-79
2023/09/09 03:58:25;;;;;;;12.67;7.10;;;16.90;71.30;;;;;;5093357;28;20444;-79
2023/09/09 04:01:04;;;;;;;12.50;7.87;;;16.90;71.40;;;;;;5089475;27;20490;-78
2023/09/09 04:03:34;;;;;;;15.53;7.67;;;16.90;71.50;;;;;;5109428;27;20559;-80
2023/09/09 04:06:05;;;;;;;11.27;7.60;;;16.90;71.50;;;;;;5109572;27;20476;-80
2023/09/09 04:08:35;;;;;;;10.37;7.80;;;16.90;71.50;;;;;;5112033;27;20539;-80
2023/09/09 04:11:04;;;;;;;12.03;8.03;;;16.80;71.40;;;;;;5088217;28;20444;-80
2023/09/09 04:13:37;;;;;;;11.90;7.57;;;16.80;71.20;;;;;;5091001;28;20467;-79
2023/09/09 04:16:06;;;;;;;10.73;7.23;;;16.70;71.40;;;;;;5092873;27;20448;-79
2023/09/09 04:18:35;;;;;;;12.23;7.50;;;16.70;71.50;;;;;;5094798;28;20456;-79
2023/09/09 04:21:13;;;;;;;14.97;7.30;;;16.80;71.50;;;;;;5094783;28;20447;-79
2023/09/09 04:23:41;;;;;;;13.43;7.43;;;16.80;71.60;;;;;;5095567;28;20533;-78
2023/09/09 04:26:09;;;;;;;10.73;7.00;;;16.80;71.60;;;;;;5094820;28;20510;-78
2023/09/09 04:28:40;;;;;;;12.63;7.97;;;16.80;71.50;;;;;;5095705;28;20447;-79
2023/09/09 04:31:08;;;;;;;12.20;8.63;;;16.80;71.50;;;;;;5093324;27;20470;-80
2023/09/09 04:33:40;;;;;;;13.10;8.13;;;16.80;71.50;;;;;;5089520;28;20969;-78
2023/09/09 04:36:08;;;;;;;10.93;7.40;;;16.80;71.50;;;;;;5091834;27;20463;-79
2023/09/09 04:38:37;;;;;;;13.43;8.33;;;16.80;71.40;;;;;;5094198;28;20451;-79
2023/09/09 04:41:09;;;;;;;13.33;8.07;;;16.80;71.30;;;;;;5094659;28;21097;-79
2023/09/09 04:43:39;;;;;;;17.20;9.20;;;16.70;71.30;;;;;;5086953;28;20501;-78
2023/09/09 04:46:07;;;;;;;13.33;8.40;;;16.70;71.30;;;;;;5091085;28;20565;-79
2023/09/09 04:48:36;;;;;;;14.63;8.07;;;16.60;71.30;;;;;;5093060;27;20961;-79
2023/09/09 04:51:04;;;;;;;13.97;7.60;;;16.50;71.40;;;;;;5094175;28;20487;-78
2023/09/09 04:53:32;;;;;;;14.60;9.07;;;16.50;71.50;;;;;;5112889;27;20549;-79
2023/09/09 04:56:02;;;;;;;11.90;7.87;;;16.50;71.50;;;;;;5084793;28;20464;-79
2023/09/09 04:58:31;;;;;;;14.70;9.13;;;16.40;71.60;;;;;;5089491;28;20565;-78
2023/09/09 05:01:02;;;;;;;14.63;8.60;;;16.40;71.60;;;;;;5090646;28;20503;-80
2023/09/09 05:03:30;;;;;;;13.43;7.13;;;16.40;71.80;;;;;;5089711;28;20463;-78
2023/09/09 05:05:58;;;;;;;11.60;8.37;;;16.50;71.80;;;;;;5089764;28;20456;-78
2023/09/09 05:08:26;;;;;;;13.40;8.57;;;16.50;71.80;;;;;;5090224;28;20448;-78
2023/09/09 05:10:54;;;;;;;15.67;8.63;;;16.50;71.80;;;;;;5094436;28;20810;-78
2023/09/09 05:13:23;;;;;;;17.90;8.50;;;16.50;71.80;;;;;;5111439;28;20935;-78
2023/09/09 05:15:52;;;;;;;14.13;8.60;;;16.50;71.80;;;;;;5094112;28;20627;-79
2023/09/09 05:18:21;;;;;;;14.53;9.27;;;16.50;71.90;;;;;;5127405;27;20467;-77
2023/09/09 05:20:50;;;;;;;16.13;8.30;;;16.50;71.90;;;;;;5100228;28;20829;-79
2023/09/09 05:23:18;;;;;;;14.20;8.70;;;16.50;71.80;;;;;;5106757;27;20524;-80
2023/09/09 05:25:47;;;;;;;10.63;7.70;;;16.50;71.70;;;;;;5095021;27;20929;-79
2023/09/09 05:28:15;;;;;;;12.30;8.77;;;16.40;71.80;;;;;;5090640;28;21257;-81
2023/09/09 05:30:43;;;;;;;13.20;8.30;;;16.40;71.90;;;;;;5100546;27;21298;-79
2023/09/09 05:33:12;;;;;;;13.37;8.90;;;16.40;71.90;;;;;;5061754;28;20460;-80
2023/09/09 05:35:43;;;;;;;13.20;8.30;;;16.40;71.90;;;;;;5081708;28;20536;-80
2023/09/09 05:38:11;;;;;;;13.67;8.33;;;16.30;72.00;;;;;;5065087;28;21071;-79
2023/09/09 05:40:39;;;;;;;14.30;8.27;;;16.30;72.10;;;;;;5080739;28;20460;-79
2023/09/09 05:43:07;;;;;;;12.97;8.97;;;16.30;72.10;;;;;;5060540;28;20666;-78
2023/09/09 05:45:36;;;;;;;10.97;8.40;;;16.30;72.20;;;;;;5102281;28;20556;-80
2023/09/09 05:48:05;;;;;;;15.77;9.83;;;16.40;72.40;;;;;;5101240;28;20487;-79
2023/09/09 05:50:33;;;;;;;13.67;9.20;;;16.40;72.50;;;;;;5069083;28;21200;-79
2023/09/09 05:53:03;;;;;;;12.23;8.90;;;16.40;72.60;;;;;;5098581;28;21037;-78
2023/09/09 05:55:31;;;;;;;12.47;8.83;;;16.50;72.70;;;;;;5056979;28;20978;-80
2023/09/09 05:57:59;;;;;;;13.67;9.50;;;16.50;72.80;;;;;;5082675;28;20466;-80
2023/09/09 06:00:28;;;;;;;16.60;8.80;;;16.50;73.00;;;;;;5067994;28;20506;-79
2023/09/09 06:02:56;;;;;;;13.63;9.60;;;16.50;73.00;;;;;;5082561;28;20456;-80
2023/09/09 06:05:24;;;;;;;16.60;9.93;;;16.60;73.20;;;;;;5069827;28;20944;-79
2023/09/09 06:07:52;;;;;;;12.97;8.13;;;16.60;73.40;;;;;;5085766;28;20480;-80
2023/09/09 06:10:22;;;;;;;14.53;9.10;;;16.70;73.60;;;;;;5079665;28;20460;-79
2023/09/09 06:12:50;;;;;;;15.30;9.23;;;16.80;73.80;;;;;;5073611;28;20496;-78
2023/09/09 06:15:22;;;;;;;13.07;8.37;;;16.90;73.80;;;;;;5075577;28;20460;-79
2023/09/09 06:17:50;;;;;;;19.10;9.93;;;17.00;73.80;;;;;;5075132;28;20921;-79
2023/09/09 06:20:18;;;;;;;12.33;8.80;;;17.10;73.80;;;;;;5101944;28;20449;-80
2023/09/09 06:22:47;;;;;;;14.27;10.40;;;17.20;74.00;;;;;;5066705;28;20459;-79
2023/09/09 06:25:15;;;;;;;13.37;10.03;;;17.20;74.00;;;;;;5066805;28;20556;-78
2023/09/09 06:27:44;;;;;;;19.83;11.33;;;17.30;74.10;;;;;;5077339;28;20476;-79
2023/09/09 06:30:12;;;;;;;14.87;10.37;;;17.30;74.30;;;;;;5080668;28;20476;-79
2023/09/09 06:32:40;;;;;;;18.63;10.30;;;17.40;74.40;;;;;;5085780;28;21126;-78
2023/09/09 06:35:09;;;;;;;21.10;10.57;;;17.50;74.50;;;;;;5070168;28;21288;-77
2023/09/09 06:37:37;;;;;;;16.37;10.63;;;17.60;74.60;;;;;;5084769;28;20963;-78
2023/09/09 06:40:07;;;;;;;14.17;10.57;;;17.70;74.60;;;;;;5086896;28;20533;-74
2023/09/09 06:42:36;;;;;;;17.60;12.60;;;17.70;74.80;;;;;;5067042;28;20482;-79
2023/09/09 06:45:09;;;;;;;17.93;12.30;;;17.80;74.80;;;;;;5079914;28;20511;-80
2023/09/09 06:47:38;;;;;;;22.70;14.60;;;17.90;75.00;;;;;;5081015;28;20492;-78
2023/09/09 06:50:07;;;;;;;16.20;12.57;;;18.00;75.00;;;;;;5080178;28;20448;-81
2023/09/09 06:52:38;;;;;;;17.80;13.80;;;18.00;75.20;;;;;;5067599;28;20461;-78
2023/09/09 06:55:07;;;;;;;24.23;13.60;;;18.10;75.30;;;;;;5069323;28;20546;-78
2023/09/09 06:57:35;;;;;;;18.20;12.60;;;18.10;75.40;;;;;;5090745;28;20441;-76
2023/09/09 07:00:04;;;;;;;15.20;11.00;;;18.10;75.50;;;;;;5085137;28;20811;-79
2023/09/09 07:02:33;;;;;;;16.67;12.20;;;18.20;75.70;;;;;;5070000;28;20551;-78
2023/09/09 07:05:02;;;;;;;19.77;11.90;;;18.30;75.80;;;;;;5087849;28;20496;-78
2023/09/09 07:07:30;;;;;;;22.67;12.33;;;18.30;75.90;;;;;;5089154;28;20491;-78
2023/09/09 07:10:09;;;;;;;14.47;10.97;;;18.40;76.00;;;;;;5082146;28;20456;-81
2023/09/09 07:12:37;;;;;;;13.90;10.80;;;18.40;76.10;;;;;;5090080;28;20804;-80
2023/09/09 07:15:06;;;;;;;15.73;10.90;;;18.50;76.20;;;;;;5089005;28;20464;-78
2023/09/09 07:17:36;;;;;;;16.00;11.43;;;18.50;76.30;;;;;;5072126;28;20853;-78
2023/09/09 07:20:05;;;;;;;17.10;11.10;;;18.60;76.30;;;;;;5091264;28;20445;-77
2023/09/09 07:22:33;;;;;;;17.33;11.30;;;18.60;76.50;;;;;;5069647;28;21061;-78
2023/09/09 07:25:01;;;;;;;14.63;11.37;;;18.60;76.70;;;;;;5071705;28;20468;-78
2023/09/09 07:27:30;;;;;;;16.40;11.23;;;18.60;76.90;;;;;;5090207;28;20472;-77
2023/09/09 07:29:58;;;;;;;13.63;10.87;;;18.70;77.00;;;;;;5070669;28;20468;-80
2023/09/09 07:32:26;;;;;;;16.80;11.30;;;18.80;77.00;;;;;;5069869;28;20597;-77
2023/09/09 07:34:55;;;;;;;15.60;10.60;;;18.90;77.10;;;;;;5091215;28;20510;-76
2023/09/09 07:37:23;;;;;;;16.70;11.43;;;19.00;77.10;;;;;;5087266;28;20461;-79
2023/09/09 07:39:54;;;;;;;15.40;10.47;;;19.10;77.20;;;;;;5070466;28;20472;-77
2023/09/09 07:42:22;;;;;;;19.83;11.60;;;19.10;77.20;;;;;;5071246;28;20554;-77
2023/09/09 07:44:50;;;;;;;15.63;10.20;;;19.20;77.20;;;;;;5085465;28;20464;-76
2023/09/09 07:47:18;;;;;;;15.03;9.47;;;19.20;77.20;;;;;;5086587;28;20467;-76
2023/09/09 07:49:46;;;;;;;14.07;10.37;;;19.30;77.10;;;;;;5088896;28;20452;-76
2023/09/09 07:52:15;;;;;;;17.77;10.43;;;19.30;77.10;;;;;;5069877;28;20954;-80
2023/09/09 07:54:43;;;;;;;13.27;9.83;;;19.30;77.20;;;;;;5082212;28;20464;-79
2023/09/09 07:57:12;;;;;;;13.17;8.87;;;19.40;77.20;;;;;;5086931;28;20464;-78
2023/09/09 07:59:40;;;;;;;14.93;9.87;;;19.40;77.30;;;;;;5100721;28;20444;-80
2023/09/09 08:02:08;;;;;;;15.30;10.60;;;19.50;77.30;;;;;;5087372;28;20484;-78
2023/09/09 08:04:36;;;;;;;12.23;9.67;;;19.50;77.30;;;;;;5088951;28;20456;-80
2023/09/09 08:07:04;;;;;;;15.10;9.20;;;19.60;77.30;;;;;;5091221;28;20459;-78
2023/09/09 08:09:34;;;;;;;13.43;9.33;;;19.60;77.20;;;;;;5089544;28;20573;-78
2023/09/09 08:12:02;;;;;;;15.37;10.23;;;19.70;77.20;;;;;;5089669;28;20847;-77
2023/09/09 08:14:30;;;;;;;12.80;9.70;;;19.80;77.10;;;;;;5088456;28;20459;-78
2023/09/09 08:16:58;;;;;;;14.40;10.67;;;19.80;77.20;;;;;;5089096;28;20812;-77
2023/09/09 08:19:26;;;;;;;13.90;10.27;;;19.90;77.20;;;;;;5089770;28;20449;-79
2023/09/09 08:21:54;;;;;;;16.27;9.60;;;19.90;77.20;;;;;;5086949;28;20456;-77
2023/09/09 08:24:23;;;;;;;14.20;10.03;;;20.00;77.10;;;;;;5086268;28;20950;-77
2023/09/09 08:26:53;;;;;;;13.13;9.90;;;20.00;77.20;;;;;;5087624;28;20461;-76
2023/09/09 08:29:21;;;;;;;16.30;10.00;;;20.10;77.20;;;;;;5102977;28;20500;-77
2023/09/09 08:31:49;;;;;;;12.67;9.10;;;20.20;77.20;;;;;;5097826;28;20472;-76
2023/09/09 08:34:17;;;;;;;16.80;11.63;;;20.30;77.10;;;;;;5108754;28;20463;-76
2023/09/09 08:36:45;;;;;;;13.40;9.83;;;20.40;77.00;;;;;;5107183;28;20820;-76
2023/09/09 08:39:13;;;;;;;18.10;11.00;;;20.40;76.80;;;;;;5109193;28;20553;-79
2023/09/09 08:41:53;;;;;;;12.07;9.03;;;20.50;76.70;;;;;;5107185;27;20461;-78
2023/09/09 08:44:34;;;;;;;15.33;9.77;;;20.60;76.60;;;;;;5103616;28;20467;-78
2023/09/09 08:47:03;;;;;;;11.63;9.07;;;20.60;76.60;;;;;;5108858;28;20812;-78
2023/09/09 08:49:34;;;;;;;14.33;9.57;;;20.70;76.60;;;;;;5105867;28;20993;-77
2023/09/09 08:52:04;;;;;;;14.47;10.10;;;20.70;76.60;;;;;;5108547;28;20556;-77
2023/09/09 08:54:32;;;;;;;13.90;8.80;;;20.80;76.60;;;;;;5108221;28;20525;-77
2023/09/09 08:57:02;;;;;;;16.30;10.00;;;20.80;76.60;;;;;;5109153;28;21002;-78
2023/09/09 08:59:34;;;;;;;15.93;9.33;;;20.90;76.60;;;;;;5108966;28;20450;-78
2023/09/09 09:02:03;;;;;;;13.83;9.30;;;20.90;76.50;;;;;;5086405;28;20473;-76
2023/09/09 09:04:34;;;;;;;12.13;9.47;;;20.90;76.60;;;;;;5087669;28;20480;-80
2023/09/09 09:07:03;;;;;;;14.17;10.00;;;21.00;76.60;;;;;;5108809;28;20837;-78
2023/09/09 09:09:31;;;;;;;14.27;9.10;;;21.10;76.50;;;;;;5107388;28;20822;-78
2023/09/09 09:12:00;;;;;;;12.10;9.23;;;21.10;76.40;;;;;;5108770;27;20473;-78
2023/09/09 09:14:28;;;;;;;11.70;8.53;;;21.20;76.20;;;;;;5107508;28;20483;-78
2023/09/09 09:16:57;;;;;;;14.50;9.27;;;21.30;76.10;;;;;;5108438;28;20460;-79
2023/09/09 09:19:29;;;;;;;14.30;8.90;;;21.30;76.10;;;;;;5107897;28;20448;-78
2023/09/09 09:21:58;;;;;;;15.80;9.80;;;21.30;76.20;;;;;;5109583;28;20849;-78
2023/09/09 09:24:27;;;;;;;14.57;10.30;;;21.40;76.30;;;;;;5100418;28;20824;-79
2023/09/09 09:26:55;;;;;;;14.03;9.50;;;21.50;76.20;;;;;;5108470;28;20456;-78
2023/09/09 09:29:23;;;;;;;11.80;8.63;;;21.60;76.10;;;;;;5090058;28;20472;-77
2023/09/09 09:31:53;;;;;;;13.93;9.67;;;21.60;76.00;;;;;;5107211;28;20877;-78
2023/09/09 09:34:34;;;;;;;13.70;9.13;;;21.70;75.90;;;;;;5106417;28;20478;-78
2023/09/09 09:37:04;;;;;;;15.53;10.33;;;21.80;75.80;;;;;;5106800;28;20546;-78
2023/09/09 09:39:35;;;;;;;14.57;9.90;;;21.80;75.90;;;;;;5089350;28;20540;-78
2023/09/09 09:42:03;;;;;;;15.47;9.80;;;21.90;75.80;;;;;;5107816;28;20459;-78
2023/09/09 09:44:31;;;;;;;12.80;10.23;;;22.00;75.60;;;;;;5107904;28;20543;-76
2023/09/09 09:47:01;;;;;;;13.27;9.70;;;22.10;75.50;;;;;;5108708;28;20530;-78
2023/09/09 09:49:36;;;;;;;14.80;9.73;;;22.20;75.30;;;;;;5089345;28;20478;-80
2023/09/09 09:52:05;;;;;;;15.23;10.30;;;22.20;75.20;;;;;;5089134;28;20455;-77
2023/09/09 09:54:34;;;;;;;15.60;10.40;;;22.30;75.20;;;;;;5107810;28;20443;-77
2023/09/09 09:57:03;;;;;;;17.10;9.90;;;22.40;75.10;;;;;;5107441;28;21254;-77
2023/09/09 09:59:33;;;;;;;14.83;9.87;;;22.50;74.90;;;;;;5105905;28;20448;-78
2023/09/09 10:02:03;;;;;;;13.60;10.30;;;22.60;74.60;;;;;;5106137;28;20552;-78
2023/09/09 10:04:39;;;;;;;13.00;10.30;;;22.60;74.60;;;;;;5104308;28;20475;-77
2023/09/09 10:07:12;;;;;;;13.97;9.37;;;22.70;74.40;;;;;;5106758;28;20506;-75
2023/09/09 10:09:45;;;;;;;15.27;10.27;;;22.70;74.30;;;;;;5084509;28;20521;-75
2023/09/09 10:12:19;;;;;;;13.30;9.60;;;22.80;74.20;;;;;;5101831;28;20551;-78
2023/09/09 10:15:06;;;;;;;13.30;9.87;;;22.80;74.10;;;;;;5106296;28;20811;-79
2023/09/09 10:17:36;;;;;;;20.17;11.37;;;22.90;74.00;;;;;;5104755;28;20470;-75
2023/09/09 10:20:07;;;;;;;13.13;9.80;;;22.90;73.90;;;;;;5105972;28;20448;-74
2023/09/09 10:22:37;;;;;;;16.80;9.40;;;22.90;74.00;;;;;;5083551;28;20456;-77
2023/09/09 10:25:07;;;;;;;16.97;9.10;;;23.00;73.80;;;;;;5109478;28;20448;-79
2023/09/09 10:27:36;;;;;;;17.33;10.37;;;23.10;73.70;;;;;;5088335;28;20984;-79
2023/09/09 10:30:05;;;;;;;14.43;9.83;;;23.20;73.50;;;;;;5103345;28;20491;-76
2023/09/09 10:32:36;;;;;;;11.90;9.30;;;23.20;73.50;;;;;;5108803;27;20467;-76
2023/09/09 10:35:06;;;;;;;12.67;10.00;;;23.20;73.60;;;;;;5112606;27;20945;-75
2023/09/09 10:37:37;;;;;;;12.70;8.70;;;23.30;73.50;;;;;;5108772;27;20467;-75
2023/09/09 10:40:07;;;;;;;16.13;9.40;;;23.40;73.40;;;;;;5092258;28;20448;-78
2023/09/09 10:42:39;;;;;;;16.07;9.53;;;23.40;73.40;;;;;;5106676;27;20479;-78
2023/09/09 10:45:23;;;;;;;14.37;10.20;;;23.50;73.10;;;;;;5115194;27;20448;-81
2023/09/09 10:47:54;;;;;;;17.20;10.23;;;23.60;72.90;;;;;;5109409;27;20537;-75
2023/09/09 10:50:37;;;;;;;13.90;9.60;;;23.60;72.90;;;;;;5112959;27;20471;-75
2023/09/09 10:53:17;;;;;;;13.03;9.07;;;23.60;73.00;;;;;;5108473;28;20458;-76
2023/09/09 10:55:46;;;;;;;12.80;9.60;;;23.70;72.70;;;;;;5110182;27;20456;-77
2023/09/09 10:58:18;;;;;;;12.50;8.93;;;23.80;72.50;;;;;;5115544;27;20456;-76
2023/09/09 11:00:48;;;;;;;14.40;9.30;;;23.90;72.30;;;;;;5102895;27;20460;-76
2023/09/09 11:03:23;;;;;;;16.30;9.80;;;23.90;72.20;;;;;;5090610;28;20879;-73
2023/09/09 11:06:02;;;;;;;14.57;8.80;;;24.00;71.90;;;;;;5090567;28;20961;-75
2023/09/09 11:08:36;;;;;;;11.80;9.23;;;24.00;71.70;;;;;;5094024;28;20460;-77
2023/09/09 11:11:09;;;;;;;16.73;8.90;;;24.00;71.80;;;;;;5086340;28;20851;-75
2023/09/09 11:13:42;;;;;;;13.20;9.43;;;24.00;71.90;;;;;;5089117;28;20950;-75
2023/09/09 11:16:26;;;;;;;10.70;8.60;;;24.10;71.80;;;;;;5091391;28;20512;-77
2023/09/09 11:18:54;;;;;;;14.00;8.50;;;24.20;71.60;;;;;;5082330;28;20492;-74
2023/09/09 11:21:23;;;;;;;10.33;7.57;;;24.30;71.60;;;;;;5088665;28;20455;-77
2023/09/09 11:23:52;;;;;;;12.33;7.93;;;24.40;71.40;;;;;;5087712;28;20467;-74
2023/09/09 11:26:20;;;;;;;12.77;7.77;;;24.40;70.80;;;;;;5092025;28;20970;-76
2023/09/09 11:28:49;;;;;;;10.50;7.70;;;24.50;70.50;;;;;;5091684;28;20463;-79
2023/09/09 11:31:18;;;;;;;15.73;8.47;;;24.50;70.30;;;;;;5090586;28;21013;-76
2023/09/09 11:33:46;;;;;;;17.07;8.53;;;24.60;70.20;;;;;;5066718;28;21025;-80
2023/09/09 11:36:18;;;;;;;15.40;8.20;;;24.60;70.00;;;;;;5087366;28;20456;-78
2023/09/09 11:38:47;;;;;;;12.83;8.40;;;24.70;69.90;;;;;;5089225;28;20471;-76
2023/09/09 11:41:19;;;;;;;12.77;8.40;;;24.80;69.80;;;;;;5088748;28;20456;-79
2023/09/09 11:43:57;;;;;;;11.13;8.40;;;24.80;69.50;;;;;;5087643;28;20816;-78
2023/09/09 11:46:26;;;;;;;11.53;7.87;;;24.80;69.30;;;;;;5088355;28;20997;-79
2023/09/09 11:48:54;;;;;;;10.27;7.83;;;24.80;69.30;;;;;;5086990;28;20456;-76
2023/09/09 11:51:22;;;;;;;14.60;8.43;;;24.90;69.00;;;;;;5087188;28;20966;-76
2023/09/09 11:53:52;;;;;;;14.10;7.77;;;24.90;68.90;;;;;;5086220;28;20864;-75
2023/09/09 11:56:21;;;;;;;12.67;8.03;;;24.90;68.90;;;;;;5089594;28;20489;-77
2023/09/09 11:58:49;;;;;;;11.77;7.83;;;25.00;69.00;;;;;;5092881;28;20539;-79
2023/09/09 12:01:20;;;;;;;13.13;8.50;;;25.00;69.10;;;;;;5088310;28;20479;-76
2023/09/09 12:03:50;;;;;;;11.77;7.97;;;25.10;68.90;;;;;;5087946;28;20452;-75
2023/09/09 12:06:20;;;;;;;14.80;7.93;;;25.20;68.50;;;;;;5088611;28;20491;-77
2023/09/09 12:08:52;;;;;;;10.23;7.20;;;25.20;68.10;;;;;;5088121;28;20476;-80
2023/09/09 12:11:20;;;;;;;12.50;8.37;;;25.20;67.90;;;;;;5087639;28;20489;-78
2023/09/09 12:13:48;;;;;;;9.90;7.80;;;25.30;67.70;;;;;;5088014;28;20453;-78
2023/09/09 12:16:16;;;;;;;11.93;7.10;;;25.30;67.50;;;;;;5087810;28;20549;-79
2023/09/09 12:18:52;;;;;;;10.57;7.23;;;25.30;67.00;;;;;;5088868;28;20559;-74
2023/09/09 12:21:21;;;;;;;11.43;7.90;;;25.40;67.00;;;;;;5086668;28;20488;-76
2023/09/09 12:23:49;;;;;;;11.53;8.20;;;25.40;67.00;;;;;;5085013;28;20453;-78
2023/09/09 12:26:19;;;;;;;10.43;8.10;;;25.40;66.80;;;;;;5084101;28;20458;-77
2023/09/09 12:29:04;;;;;;;11.03;8.73;;;25.40;67.00;;;;;;5083883;28;20461;-77
2023/09/09 12:31:33;;;;;;;11.20;7.50;;;25.40;66.90;;;;;;5085184;28;20952;-78
2023/09/09 12:34:01;;;;;;;11.00;8.27;;;25.50;67.00;;;;;;5084218;28;20463;-77
2023/09/09 12:36:33;;;;;;;14.40;8.13;;;25.50;66.80;;;;;;5086890;28;20555;-77
2023/09/09 12:39:02;;;;;;;14.93;7.57;;;25.60;66.70;;;;;;5083516;28;21061;-78
2023/09/09 12:41:31;;;;;;;11.83;8.13;;;25.60;66.60;;;;;;5083031;28;20904;-79
2023/09/09 12:44:09;;;;;;;13.10;8.73;;;25.60;66.60;;;;;;5080815;28;20456;-78
2023/09/09 12:46:37;;;;;;;11.67;8.37;;;25.60;66.40;;;;;;5084427;28;20494;-78